createdAt,value
2019-01-02T00:02:11.913Z,1.72
2019-01-02T00:04:40.230Z,1.17
2019-01-02T00:07:08.765Z,1.20
2019-01-02T00:09:37.005Z,0.60
2019-01-02T00:12:05.729Z,1.55
2019-01-02T00:14:33.986Z,0.82
2019-01-02T00:17:02.625Z,0.75
2019-01-02T00:19:30.869Z,1.30
2019-01-02T00:21:59.283Z,0.80
2019-01-02T00:24:27.597Z,0.50
2019-01-02T00:27:13.705Z,1.02
2019-01-02T00:29:42.278Z,1.50
2019-01-02T00:32:10.537Z,0.53
2019-01-02T00:34:39.135Z,0.50
2019-01-02T00:37:07.363Z,0.68
2019-01-02T00:39:36.063Z,0.85
2019-01-02T00:42:04.327Z,0.85
2019-01-02T00:44:32.940Z,0.90
2019-01-02T00:47:01.233Z,1.07
2019-01-02T00:49:29.455Z,0.57
2019-01-02T00:51:57.791Z,0.68
2019-01-02T00:54:26.083Z,0.68
2019-01-02T00:56:54.298Z,1.02
2019-01-02T00:59:22.602Z,1.17
2019-01-02T01:01:50.899Z,1.92
2019-01-02T01:04:19.639Z,0.88
2019-01-02T01:06:47.851Z,1.10
2019-01-02T01:09:16.483Z,1.23
2019-01-02T01:11:44.756Z,1.60
2019-01-02T01:14:13.276Z,0.42
2019-01-02T01:16:41.500Z,1.20
2019-01-02T01:19:09.933Z,0.30
2019-01-02T01:21:38.155Z,0.98
2019-01-02T01:24:06.832Z,0.42
2019-01-02T01:26:35.064Z,0.80
2019-01-02T01:29:04.168Z,1.30
2019-01-02T01:31:32.704Z,1.10
2019-01-02T01:34:01.028Z,0.40
2019-01-02T01:36:29.258Z,0.70
2019-01-02T01:38:57.492Z,0.80
2019-01-02T01:41:25.712Z,0.90
2019-01-02T01:43:54.384Z,0.62
2019-01-02T01:46:22.600Z,0.50
2019-01-02T01:48:51.226Z,0.60
2019-01-02T01:51:19.422Z,1.17
2019-01-02T01:53:47.707Z,0.72
2019-01-02T01:56:16.196Z,0.42
2019-01-02T01:58:44.407Z,0.90
2019-01-02T02:01:12.715Z,1.22
2019-01-02T02:03:40.949Z,0.68
2019-01-02T02:06:09.183Z,0.90
2019-01-02T02:08:37.826Z,1.30
2019-01-02T02:11:06.139Z,0.90
2019-01-02T02:13:34.359Z,0.77
2019-01-02T02:16:03.107Z,1.10
2019-01-02T02:18:31.312Z,1.40
2019-01-02T02:21:00.035Z,1.20
2019-01-02T02:23:28.265Z,0.70
2019-01-02T02:25:56.545Z,0.40
2019-01-02T02:28:25.064Z,1.00
2019-01-02T02:30:53.379Z,0.90
2019-01-02T02:33:21.796Z,0.50
2019-01-02T02:35:50.510Z,0.90
2019-01-02T02:38:19.126Z,0.90
2019-01-02T02:40:47.639Z,1.10
2019-01-02T02:43:15.863Z,1.10
2019-01-02T02:45:44.147Z,0.70
2019-01-02T02:48:12.852Z,1.30
2019-01-02T02:50:41.390Z,0.93
2019-01-02T02:53:09.911Z,1.00
2019-01-02T02:55:38.521Z,1.32
2019-01-02T02:58:07.049Z,0.88
2019-01-02T03:00:35.279Z,1.15
2019-01-02T03:03:03.878Z,1.02
2019-01-02T03:05:32.162Z,0.87
2019-01-02T03:08:00.354Z,1.15
2019-01-02T03:10:28.942Z,0.50
2019-01-02T03:12:57.677Z,0.87
2019-01-02T03:15:26.307Z,0.65
2019-01-02T03:17:54.592Z,0.95
2019-01-02T03:20:22.907Z,0.60
2019-01-02T03:22:51.110Z,0.95
2019-01-02T03:25:19.833Z,0.90
2019-01-02T03:27:48.446Z,0.85
2019-01-02T03:30:18.095Z,0.50
2019-01-02T03:32:46.784Z,1.27
2019-01-02T03:35:15.379Z,0.80
2019-01-02T03:37:43.646Z,1.07
2019-01-02T03:40:11.912Z,0.70
2019-01-02T03:42:40.210Z,0.80
2019-01-02T03:45:09.751Z,1.30
2019-01-02T03:47:38.018Z,0.57
2019-01-02T03:50:07.154Z,1.10
2019-01-02T03:52:35.460Z,0.72
2019-01-02T03:55:04.363Z,0.72
2019-01-02T03:57:32.653Z,0.53
2019-01-02T04:00:00.931Z,1.07
2019-01-02T04:02:29.178Z,1.20
2019-01-02T04:04:57.507Z,0.87
2019-01-02T04:07:25.782Z,1.00
2019-01-02T04:09:54.014Z,0.70
2019-01-02T04:12:22.238Z,0.53
2019-01-02T04:14:50.496Z,1.07
2019-01-02T04:17:19.777Z,1.25
2019-01-02T04:19:48.009Z,0.85
2019-01-02T04:22:16.240Z,0.53
2019-01-02T04:24:44.472Z,0.95
2019-01-02T04:27:12.716Z,0.80
2019-01-02T04:29:41.018Z,1.75
2019-01-02T04:32:10.356Z,1.27
2019-01-02T04:34:38.726Z,0.33
2019-01-02T04:37:07.104Z,0.70
2019-01-02T04:39:35.369Z,0.65
2019-01-02T04:42:03.630Z,0.90
2019-01-02T04:44:31.821Z,1.17
2019-01-02T04:47:00.086Z,0.80
2019-01-02T04:49:28.355Z,1.35
2019-01-02T04:51:56.721Z,0.85
2019-01-02T04:54:24.937Z,1.27
2019-01-02T04:56:53.183Z,1.67
2019-01-02T04:59:21.500Z,0.88
2019-01-02T05:01:49.748Z,1.10
2019-01-02T05:04:19.026Z,1.00
2019-01-02T05:06:47.217Z,0.88
2019-01-02T05:09:15.478Z,0.50
2019-01-02T05:11:43.700Z,0.30
2019-01-02T05:14:11.941Z,0.90
2019-01-02T05:16:40.126Z,0.68
2019-01-02T05:19:08.477Z,0.72
2019-01-02T05:21:36.722Z,0.30
2019-01-02T05:24:05.030Z,0.90
2019-01-02T05:26:33.256Z,0.47
2019-01-02T05:29:01.505Z,0.60
2019-01-02T05:31:29.842Z,0.40
2019-01-02T05:33:58.116Z,0.40
2019-01-02T05:36:26.486Z,1.00
2019-01-02T05:38:54.700Z,0.80
2019-01-02T05:41:22.974Z,0.60
2019-01-02T05:43:51.268Z,0.50
2019-01-02T05:46:19.459Z,0.30
2019-01-02T05:48:47.726Z,0.65
2019-01-02T05:51:16.003Z,0.72
2019-01-02T05:53:44.263Z,0.23
2019-01-02T05:56:12.482Z,0.37
2019-01-02T05:58:40.784Z,0.90
2019-01-02T06:01:09.011Z,1.40
2019-01-02T06:03:37.235Z,0.50
2019-01-02T06:06:05.583Z,0.60
2019-01-02T06:08:33.846Z,0.20
2019-01-02T06:11:02.086Z,0.20
2019-01-02T06:13:30.336Z,0.65
2019-01-02T06:15:58.645Z,0.45
2019-01-02T06:18:26.859Z,0.50
2019-01-02T06:20:55.113Z,0.50
2019-01-02T06:23:23.344Z,0.50
2019-01-02T06:25:51.637Z,0.60
2019-01-02T06:28:19.920Z,0.40
2019-01-02T06:30:48.184Z,0.37
2019-01-02T06:33:16.388Z,0.53
2019-01-02T06:35:44.726Z,0.40
2019-01-02T06:38:12.966Z,0.57
2019-01-02T06:40:41.253Z,0.53
2019-01-02T06:43:09.587Z,0.57
2019-01-02T06:45:37.770Z,0.55
2019-01-02T06:48:06.103Z,0.33
2019-01-02T06:50:34.389Z,0.30
2019-01-02T06:53:02.725Z,0.37
2019-01-02T06:55:30.931Z,0.50
2019-01-02T06:57:59.197Z,0.37
2019-01-02T07:00:31.657Z,0.45
2019-01-02T07:02:59.906Z,0.33
2019-01-02T07:05:28.174Z,0.30
2019-01-02T07:07:56.493Z,0.30
2019-01-02T07:10:24.735Z,0.37
2019-01-02T07:12:53.004Z,0.70
2019-01-02T07:15:21.283Z,0.30
2019-01-02T07:17:49.584Z,0.37
2019-01-02T07:20:17.882Z,0.78
2019-01-02T07:22:46.143Z,0.42
2019-01-02T07:25:14.351Z,0.40
2019-01-02T07:27:42.725Z,0.35
2019-01-02T07:30:12.465Z,0.30
2019-01-02T07:32:40.776Z,0.37
2019-01-02T07:35:16.665Z,0.50
2019-01-02T07:38:19.361Z,0.30
2019-01-02T07:41:06.951Z,0.45
2019-01-02T07:43:54.529Z,0.42
2019-01-02T07:46:33.367Z,0.88
2019-01-02T07:49:14.031Z,0.57
2019-01-02T07:52:01.710Z,0.83
2019-01-02T07:54:48.077Z,0.60
2019-01-02T07:57:39.675Z,0.33
2019-01-02T08:00:26.465Z,0.30
2019-01-02T08:03:11.834Z,0.77
2019-01-02T08:05:47.746Z,0.60
2019-01-02T08:08:34.992Z,0.60
2019-01-02T08:11:21.467Z,0.60
2019-01-02T08:14:07.634Z,0.43
2019-01-02T08:17:01.160Z,0.50
2019-01-02T08:20:07.241Z,0.68
2019-01-02T08:22:57.890Z,0.37
2019-01-02T08:25:48.263Z,0.68
2019-01-02T08:28:47.889Z,0.72
2019-01-02T08:31:34.295Z,0.55
2019-01-02T08:34:20.861Z,0.47
2019-01-02T08:37:11.523Z,0.30
2019-01-02T08:40:05.201Z,0.50
2019-01-02T08:42:41.545Z,0.40
2019-01-02T08:45:30.998Z,0.35
2019-01-02T08:48:24.735Z,0.40
2019-01-02T08:51:03.678Z,0.33
2019-01-02T08:53:49.915Z,0.40
2019-01-02T08:56:35.257Z,0.50
2019-01-02T08:59:07.233Z,0.57
2019-01-02T09:01:55.809Z,0.70
2019-01-02T09:04:52.481Z,0.40
2019-01-02T09:07:35.294Z,0.50
2019-01-02T09:10:29.088Z,0.30
2019-01-02T09:13:05.281Z,0.45
2019-01-02T09:16:05.137Z,0.63
2019-01-02T09:19:10.842Z,0.40
2019-01-02T09:21:55.401Z,0.62
2019-01-02T09:24:41.787Z,0.30
2019-01-02T09:27:29.377Z,0.70
2019-01-02T09:30:07.094Z,0.42
2019-01-02T09:33:09.707Z,0.60
2019-01-02T09:35:57.698Z,0.62
2019-01-02T09:38:43.991Z,0.40
2019-01-02T09:41:40.597Z,0.70
2019-01-02T09:44:34.377Z,0.50
2019-01-02T09:47:20.925Z,0.60
2019-01-02T09:50:17.826Z,0.50
2019-01-02T09:53:04.081Z,0.57
2019-01-02T09:55:36.622Z,0.50
2019-01-02T09:58:24.150Z,0.60
2019-01-02T10:00:59.824Z,0.50
2019-01-02T10:03:32.758Z,0.70
2019-01-02T10:06:08.125Z,0.35
2019-01-02T10:08:43.659Z,0.20
2019-01-02T10:11:16.736Z,0.60
2019-01-02T10:14:03.366Z,0.55
2019-01-02T10:16:59.936Z,0.72
2019-01-02T10:19:48.465Z,0.73
2019-01-02T10:22:36.340Z,0.53
2019-01-02T10:25:14.779Z,0.80
2019-01-02T10:28:02.441Z,1.15
2019-01-02T10:30:52.867Z,0.50
2019-01-02T10:33:40.529Z,0.70
2019-01-02T10:36:20.882Z,0.50
2019-01-02T10:39:07.278Z,0.80
2019-01-02T10:42:04.018Z,0.80
2019-01-02T10:44:49.643Z,0.57
2019-01-02T10:47:40.033Z,0.57
2019-01-02T10:50:13.049Z,0.53
2019-01-02T10:53:03.561Z,0.33
2019-01-02T10:55:51.257Z,0.60
2019-01-02T10:58:36.527Z,0.60
2019-01-02T11:01:20.923Z,0.83
2019-01-02T11:04:03.179Z,0.20
2019-01-02T11:06:49.505Z,0.40
2019-01-02T11:09:35.328Z,0.30
2019-01-02T11:12:09.291Z,0.30
2019-01-02T11:15:06.075Z,0.78
2019-01-02T11:17:53.893Z,0.70
2019-01-02T11:20:44.486Z,0.80
2019-01-02T11:23:38.313Z,0.57
2019-01-02T11:26:35.070Z,0.60
2019-01-02T11:29:22.772Z,0.40
2019-01-02T11:32:10.995Z,0.53
2019-01-02T11:34:42.968Z,0.60
2019-01-02T11:37:33.809Z,0.43
2019-01-02T11:40:19.372Z,0.80
2019-01-02T11:43:05.853Z,0.47
2019-01-02T11:45:34.129Z,0.33
2019-01-02T11:48:02.495Z,0.50
2019-01-02T11:50:30.852Z,0.55
2019-01-02T11:52:59.147Z,0.57
2019-01-02T11:55:27.467Z,0.70
2019-01-02T11:57:55.738Z,0.40
2019-01-02T12:00:24.035Z,0.60
2019-01-02T12:02:52.254Z,0.55
2019-01-02T12:05:20.635Z,0.40
2019-01-02T12:07:48.922Z,0.80
2019-01-02T12:10:17.620Z,0.30
2019-01-02T12:12:46.013Z,0.30
2019-01-02T12:15:14.238Z,0.30
2019-01-02T12:17:42.496Z,0.30
2019-01-02T12:20:10.827Z,0.33
2019-01-02T12:22:39.069Z,0.30
2019-01-02T12:25:07.304Z,0.30
2019-01-02T12:27:35.570Z,0.63
2019-01-02T12:30:04.738Z,0.43
2019-01-02T12:32:32.974Z,0.20
2019-01-02T12:35:01.195Z,0.37
2019-01-02T12:37:29.456Z,0.30
2019-01-02T12:39:58.708Z,0.37
2019-01-02T12:42:26.938Z,0.20
2019-01-02T12:44:55.174Z,0.90
2019-01-02T12:47:23.436Z,0.37
2019-01-02T12:49:51.749Z,0.50
2019-01-02T12:52:20.052Z,0.47
2019-01-02T12:54:48.388Z,0.50
2019-01-02T12:57:16.613Z,0.30
2019-01-02T12:59:44.908Z,0.50
2019-01-02T13:02:18.175Z,0.30
2019-01-02T13:04:57.465Z,0.70
2019-01-02T13:07:44.728Z,0.60
2019-01-02T13:10:18.687Z,0.40
2019-01-02T13:13:05.142Z,0.40
2019-01-02T13:15:59.128Z,0.40
2019-01-02T13:18:39.819Z,0.68
2019-01-02T13:21:27.447Z,0.30
2019-01-02T13:24:15.153Z,0.40
2019-01-02T13:26:53.027Z,0.37
2019-01-02T13:29:32.092Z,0.40
2019-01-02T13:32:07.635Z,0.53
2019-01-02T13:34:48.462Z,0.30
2019-01-02T13:37:33.222Z,0.40
2019-01-02T13:40:12.006Z,0.43
2019-01-02T13:42:51.576Z,0.20
2019-01-02T13:45:35.018Z,0.20
2019-01-02T13:48:08.145Z,0.60
2019-01-02T13:50:51.802Z,0.50
2019-01-02T13:53:20.090Z,0.33
2019-01-02T13:55:48.369Z,0.45
2019-01-02T13:58:16.648Z,0.20
2019-01-02T14:00:44.974Z,0.30
2019-01-02T14:03:13.222Z,0.50
2019-01-02T14:05:43.495Z,0.20
2019-01-02T14:08:13.338Z,0.20
2019-01-02T14:10:41.588Z,0.70
2019-01-02T14:13:09.809Z,0.23
2019-01-02T14:15:38.179Z,0.30
2019-01-02T14:18:06.414Z,0.20
2019-01-02T14:20:34.725Z,0.40
2019-01-02T14:23:02.936Z,0.43
2019-01-02T14:25:31.265Z,0.25
2019-01-02T14:27:59.581Z,0.35
2019-01-02T14:30:27.916Z,0.30
2019-01-02T14:32:56.285Z,0.20
2019-01-02T14:35:24.564Z,0.40
2019-01-02T14:37:53.879Z,0.40
2019-01-02T14:40:22.132Z,0.25
2019-01-02T14:42:50.436Z,0.45
2019-01-02T14:45:18.781Z,0.30
2019-01-02T14:47:47.104Z,0.33
2019-01-02T14:50:15.352Z,0.40
2019-01-02T14:52:43.627Z,0.65
2019-01-02T14:55:12.002Z,0.40
2019-01-02T14:57:40.348Z,0.35
2019-01-02T15:00:10.364Z,0.60
2019-01-02T15:02:38.614Z,0.50
2019-01-02T15:05:06.945Z,0.45
2019-01-02T15:07:35.182Z,0.50
2019-01-02T15:10:03.532Z,0.42
2019-01-02T15:12:31.856Z,0.60
2019-01-02T15:15:00.177Z,0.50
2019-01-02T15:17:28.484Z,0.35
2019-01-02T15:19:56.892Z,0.42
2019-01-02T15:22:25.140Z,0.53
2019-01-02T15:24:53.473Z,0.30
2019-01-02T15:27:21.735Z,0.42
2019-01-02T15:29:50.055Z,0.45
2019-01-02T15:32:18.397Z,0.45
2019-01-02T15:34:46.725Z,0.55
2019-01-02T15:37:14.995Z,0.50
2019-01-02T15:39:43.282Z,0.55
2019-01-02T15:42:11.630Z,0.53
2019-01-02T15:44:39.907Z,0.60
2019-01-02T15:47:08.613Z,0.53
2019-01-02T15:49:37.125Z,0.73
2019-01-02T15:52:05.546Z,0.50
2019-01-02T15:54:33.948Z,0.50
2019-01-02T15:57:02.223Z,0.40
2019-01-02T15:59:30.491Z,0.50
2019-01-02T16:01:58.875Z,0.45
2019-01-02T16:04:27.213Z,0.40
2019-01-02T16:06:55.585Z,0.57
2019-01-02T16:09:23.887Z,0.70
2019-01-02T16:11:52.271Z,0.80
2019-01-02T16:14:20.550Z,0.50
2019-01-02T16:16:48.823Z,0.50
2019-01-02T16:19:17.113Z,0.57
2019-01-02T16:21:45.386Z,0.70
2019-01-02T16:24:13.670Z,0.57
2019-01-02T16:26:42.135Z,0.50
2019-01-02T16:29:10.519Z,0.50
2019-01-02T16:31:38.779Z,0.50
2019-01-02T16:34:07.007Z,0.60
2019-01-02T16:36:35.250Z,0.33
2019-01-02T16:39:05.421Z,0.70
2019-01-02T16:41:33.707Z,0.80
2019-01-02T16:44:02.136Z,0.98
2019-01-02T16:46:30.364Z,0.93
2019-01-02T16:48:58.621Z,0.95
2019-01-02T16:51:26.964Z,0.62
2019-01-02T16:53:55.193Z,0.80
2019-01-02T16:56:23.505Z,0.47
2019-01-02T16:58:51.794Z,0.33
2019-01-02T17:01:20.018Z,0.60
2019-01-02T17:03:48.383Z,0.65
2019-01-02T17:06:16.712Z,0.47
2019-01-02T17:08:46.008Z,0.60
2019-01-02T17:11:14.280Z,3.62
2019-01-02T17:13:42.567Z,1.53
2019-01-02T17:16:11.015Z,0.90
2019-01-02T17:18:39.381Z,1.87
2019-01-02T17:21:07.711Z,1.05
2019-01-02T17:23:36.017Z,1.60
2019-01-02T17:26:04.412Z,1.40
2019-01-02T17:28:32.875Z,0.75
2019-01-02T17:31:01.145Z,0.70
2019-01-02T17:33:29.436Z,0.65
2019-01-02T17:35:57.813Z,1.22
2019-01-02T17:38:26.238Z,0.82
2019-01-02T17:40:54.493Z,1.02
2019-01-02T17:43:22.841Z,0.90
2019-01-02T17:45:51.235Z,0.75
2019-01-02T17:48:19.598Z,0.85
2019-01-02T17:50:47.897Z,0.90
2019-01-02T17:53:16.227Z,0.60
2019-01-02T17:55:44.504Z,1.00
2019-01-02T17:58:12.784Z,1.27
2019-01-02T18:00:41.122Z,1.17
2019-01-02T18:03:09.387Z,0.85
2019-01-02T18:05:37.679Z,0.90
2019-01-02T18:08:06.012Z,0.70
2019-01-02T18:10:34.265Z,0.80
2019-01-02T18:13:02.632Z,0.67
2019-01-02T18:15:30.950Z,1.07
2019-01-02T18:17:59.230Z,1.40
2019-01-02T18:20:27.500Z,5.22
2019-01-02T18:22:55.750Z,21.00
2019-01-02T18:25:24.089Z,10.72
2019-01-02T18:27:52.398Z,9.45
2019-01-02T18:30:20.768Z,7.47
2019-01-02T18:32:49.162Z,6.85
2019-01-02T18:35:17.496Z,3.80
2019-01-02T18:37:46.809Z,2.72
2019-01-02T18:40:15.105Z,2.70
2019-01-02T18:42:43.422Z,2.10
2019-01-02T18:45:12.770Z,2.00
2019-01-02T18:47:41.215Z,2.27
2019-01-02T18:50:10.190Z,1.80
2019-01-02T18:52:38.477Z,1.50
2019-01-02T18:55:06.745Z,1.80
2019-01-02T18:57:35.035Z,1.90
2019-01-02T19:00:06.218Z,1.82
2019-01-02T19:02:33.679Z,1.30
2019-01-02T19:05:01.999Z,1.50
2019-01-02T19:07:30.327Z,1.65
2019-01-02T19:09:58.669Z,1.57
2019-01-02T19:12:26.972Z,1.77
2019-01-02T19:14:55.388Z,1.55
2019-01-02T19:17:23.724Z,1.20
2019-01-02T19:19:53.039Z,1.70
2019-01-02T19:22:21.370Z,1.20
2019-01-02T19:24:49.647Z,1.62
2019-01-02T19:27:17.960Z,1.25
2019-01-02T19:29:46.258Z,1.32
2019-01-02T19:32:14.655Z,1.23
2019-01-02T19:34:44.605Z,0.90
2019-01-02T19:37:12.899Z,1.00
2019-01-02T19:39:41.185Z,1.37
2019-01-02T19:42:09.452Z,0.90
2019-01-02T19:44:37.778Z,1.00
2019-01-02T19:47:06.123Z,1.20
2019-01-02T19:49:34.501Z,1.30
2019-01-02T19:52:02.884Z,1.45
2019-01-02T19:54:31.153Z,1.57
2019-01-02T19:56:59.534Z,1.50
2019-01-02T19:59:27.897Z,1.30
2019-01-02T20:01:56.153Z,1.10
2019-01-02T20:04:24.432Z,1.00
2019-01-02T20:06:52.843Z,1.00
2019-01-02T20:09:22.222Z,1.00
2019-01-02T20:11:50.462Z,1.20
2019-01-02T20:14:18.783Z,0.80
2019-01-02T20:16:47.090Z,1.10
2019-01-02T20:19:15.449Z,1.10
2019-01-02T20:21:43.744Z,0.88
2019-01-02T20:24:12.126Z,1.00
2019-01-02T20:26:40.421Z,1.12
2019-01-02T20:29:08.683Z,1.05
2019-01-02T20:31:37.109Z,1.40
2019-01-02T20:34:05.370Z,1.30
2019-01-02T20:36:33.652Z,1.43
2019-01-02T20:39:01.893Z,1.55
2019-01-02T20:41:31.993Z,1.32
2019-01-02T20:44:00.353Z,1.47
2019-01-02T20:46:28.620Z,1.10
2019-01-02T20:48:56.933Z,0.98
2019-01-02T20:51:25.216Z,1.30
2019-01-02T20:53:53.490Z,1.65
2019-01-02T20:56:21.852Z,1.20
2019-01-02T20:58:50.174Z,1.30
2019-01-02T21:01:18.552Z,0.98
2019-01-02T21:03:46.855Z,1.05
2019-01-02T21:06:15.178Z,1.25
2019-01-02T21:08:43.438Z,0.95
2019-01-02T21:11:13.533Z,1.90
2019-01-02T21:13:41.889Z,1.75
2019-01-02T21:16:10.239Z,1.35
2019-01-02T21:18:38.884Z,1.30
2019-01-02T21:21:07.741Z,1.40
2019-01-02T21:23:36.092Z,1.27
2019-01-02T21:26:04.471Z,1.35
2019-01-02T21:28:32.721Z,1.02
2019-01-02T21:31:01.955Z,1.20
2019-01-02T21:33:30.769Z,0.98
2019-01-02T21:35:59.028Z,1.27
2019-01-02T21:38:27.334Z,1.20
2019-01-02T21:40:55.632Z,1.30
2019-01-02T21:43:23.999Z,1.30
2019-01-02T21:45:52.340Z,1.22
2019-01-02T21:48:20.616Z,1.40
2019-01-02T21:50:48.993Z,1.45
2019-01-02T21:53:17.291Z,1.40
2019-01-02T21:55:45.676Z,1.40
2019-01-02T21:58:13.943Z,1.90
2019-01-02T22:00:42.183Z,1.97
2019-01-02T22:03:10.451Z,1.37
2019-01-02T22:05:38.750Z,1.43
2019-01-02T22:08:06.993Z,1.42
2019-01-02T22:10:35.267Z,1.65
2019-01-02T22:13:03.576Z,1.80
2019-01-02T22:15:31.793Z,2.15
2019-01-02T22:18:00.924Z,1.80
2019-01-02T22:20:29.297Z,1.55
2019-01-02T22:22:59.202Z,1.30
2019-01-02T22:25:27.453Z,1.62
2019-01-02T22:27:55.666Z,1.10
2019-01-02T22:30:23.890Z,1.40
2019-01-02T22:32:52.148Z,1.15
2019-01-02T22:35:20.399Z,1.20
2019-01-02T22:37:48.651Z,1.00
2019-01-02T22:40:16.981Z,0.88
2019-01-02T22:42:45.295Z,1.30
2019-01-02T22:45:13.569Z,0.93
2019-01-02T22:47:41.808Z,1.25
2019-01-02T22:50:10.129Z,0.98
2019-01-02T22:52:38.416Z,1.10
2019-01-02T22:55:06.659Z,1.02
2019-01-02T22:57:34.863Z,1.15
2019-01-02T23:00:05.130Z,1.27
2019-01-02T23:02:51.019Z,1.07
2019-01-02T23:05:37.360Z,1.30
2019-01-02T23:08:36.682Z,1.30
2019-01-02T23:11:19.719Z,1.37
2019-01-02T23:14:07.141Z,1.10
2019-01-02T23:16:58.610Z,1.07
2019-01-02T23:19:49.831Z,0.95
2019-01-02T23:22:36.000Z,0.98
2019-01-02T23:25:32.284Z,0.93
2019-01-02T23:28:18.439Z,0.98
2019-01-02T23:31:14.905Z,0.93
2019-01-02T23:34:01.124Z,1.12
2019-01-02T23:36:44.158Z,1.45
2019-01-02T23:39:33.800Z,1.07
2019-01-02T23:42:28.425Z,1.20
2019-01-02T23:45:15.496Z,1.40
2019-01-02T23:48:17.937Z,1.17
2019-01-02T23:51:02.341Z,1.25
2019-01-02T23:54:01.821Z,1.27
2019-01-02T23:56:47.754Z,1.33
2019-01-02T23:59:47.624Z,1.12
